createdAt,value
2023-02-12T00:00:54.183Z,7.70
2023-02-12T00:03:21.092Z,7.70
2023-02-12T00:05:47.925Z,7.70
2023-02-12T00:08:16.311Z,7.70
2023-02-12T00:10:44.174Z,7.70
2023-02-12T00:13:12.080Z,7.70
2023-02-12T00:15:40.387Z,7.70
2023-02-12T00:18:07.306Z,7.70
2023-02-12T00:20:34.842Z,7.70
2023-02-12T00:23:01.735Z,7.70
2023-02-12T00:25:28.542Z,7.80
2023-02-12T00:27:55.417Z,7.70
2023-02-12T00:30:22.433Z,7.80
2023-02-12T00:32:49.318Z,7.70
2023-02-12T00:35:16.247Z,7.70
2023-02-12T00:37:43.557Z,7.70
2023-02-12T00:40:11.066Z,7.70
2023-02-12T00:42:39.320Z,7.70
2023-02-12T00:45:06.663Z,7.70
2023-02-12T00:47:33.511Z,7.70
2023-02-12T00:50:00.408Z,7.70
2023-02-12T00:52:27.295Z,7.70
2023-02-12T00:54:54.176Z,7.70
2023-02-12T00:57:21.054Z,7.70
2023-02-12T00:59:49.693Z,7.70
2023-02-12T01:02:18.156Z,7.60
2023-02-12T01:04:47.070Z,7.60
2023-02-12T01:07:13.963Z,7.70
2023-02-12T01:09:40.898Z,7.60
2023-02-12T01:12:08.216Z,7.60
2023-02-12T01:14:35.281Z,7.60
2023-02-12T01:17:03.861Z,7.60
2023-02-12T01:19:30.680Z,7.60
2023-02-12T01:21:57.591Z,7.60
2023-02-12T01:24:24.453Z,7.60
2023-02-12T01:26:51.315Z,7.60
2023-02-12T01:29:18.351Z,7.60
2023-02-12T01:31:45.375Z,7.60
2023-02-12T01:34:13.121Z,7.60
2023-02-12T01:36:40.258Z,7.60
2023-02-12T01:39:07.197Z,7.60
2023-02-12T01:41:39.604Z,7.70
2023-02-12T01:44:25.657Z,7.70
2023-02-12T01:47:03.275Z,7.60
2023-02-12T01:49:38.812Z,7.60
2023-02-12T01:52:23.940Z,7.60
2023-02-12T01:54:52.302Z,7.60
2023-02-12T01:57:19.764Z,7.50
2023-02-12T01:59:50.380Z,7.60
2023-02-12T02:02:17.664Z,7.50
2023-02-12T02:04:50.703Z,7.50
2023-02-12T02:07:17.731Z,7.50
2023-02-12T02:09:44.780Z,7.50
2023-02-12T02:12:30.401Z,7.50
2023-02-12T02:15:01.132Z,7.50
2023-02-12T02:17:45.199Z,7.50
2023-02-12T02:20:49.500Z,7.50
2023-02-12T02:23:48.868Z,7.50
2023-02-12T02:26:22.778Z,7.50
2023-02-12T02:29:10.661Z,7.40
2023-02-12T02:31:43.634Z,7.40
2023-02-12T02:34:23.469Z,7.40
2023-02-12T02:37:01.679Z,7.40
2023-02-12T02:39:41.921Z,7.40
2023-02-12T02:42:19.879Z,7.30
2023-02-12T02:45:06.293Z,7.40
2023-02-12T02:47:41.601Z,7.30
2023-02-12T02:50:13.456Z,7.20
2023-02-12T02:52:46.948Z,7.30
2023-02-12T02:55:18.507Z,7.30
2023-02-12T02:57:50.752Z,7.20
2023-02-12T03:00:31.615Z,7.20
2023-02-12T03:03:33.189Z,7.10
2023-02-12T03:06:06.275Z,7.10
2023-02-12T03:08:46.360Z,7.10
2023-02-12T03:11:16.266Z,7.10
2023-02-12T03:13:52.128Z,7.10
2023-02-12T03:16:25.913Z,7.10
2023-02-12T03:18:59.357Z,7.10
2023-02-12T03:21:58.130Z,7.10
2023-02-12T03:24:32.988Z,7.10
2023-02-12T03:27:08.827Z,7.10
2023-02-12T03:29:36.072Z,7.10
2023-02-12T03:32:11.435Z,7.10
2023-02-12T03:34:53.651Z,7.10
2023-02-12T03:37:32.026Z,7.00
2023-02-12T03:40:05.023Z,7.10
2023-02-12T03:42:35.171Z,7.10
2023-02-12T03:45:05.158Z,7.10
2023-02-12T03:47:47.805Z,7.10
2023-02-12T03:50:32.472Z,7.10
2023-02-12T03:52:59.379Z,7.10
2023-02-12T03:55:26.560Z,7.10
2023-02-12T03:58:00.843Z,7.10
2023-02-12T04:00:28.468Z,7.10
2023-02-12T04:02:55.859Z,7.10
2023-02-12T04:05:25.932Z,7.10
2023-02-12T04:07:55.623Z,7.10
2023-02-12T04:10:33.229Z,7.10
2023-02-12T04:13:23.860Z,7.00
2023-02-12T04:15:59.504Z,7.00
2023-02-12T04:18:49.458Z,7.10
2023-02-12T04:21:50.186Z,7.10
2023-02-12T04:24:17.016Z,7.10
2023-02-12T04:27:11.699Z,7.10
2023-02-12T04:30:14.796Z,7.10
2023-02-12T04:33:09.633Z,7.10
2023-02-12T04:35:51.004Z,7.10
2023-02-12T04:38:21.246Z,7.10
2023-02-12T04:40:49.265Z,7.00
2023-02-12T04:43:30.186Z,7.10
2023-02-12T04:45:57.514Z,7.00
2023-02-12T04:48:24.641Z,7.00
2023-02-12T04:50:51.529Z,7.00
2023-02-12T04:53:18.714Z,7.00
2023-02-12T04:55:45.831Z,7.00
2023-02-12T04:58:12.832Z,7.00
2023-02-12T05:00:39.795Z,7.00
2023-02-12T05:03:06.634Z,7.00
2023-02-12T05:05:33.739Z,7.00
2023-02-12T05:08:00.769Z,7.00
2023-02-12T05:10:27.957Z,7.00
2023-02-12T05:12:55.818Z,7.00
2023-02-12T05:15:22.874Z,7.00
2023-02-12T05:17:49.794Z,7.00
2023-02-12T05:20:16.905Z,6.80
2023-02-12T05:22:43.814Z,6.90
2023-02-12T05:25:11.817Z,6.90
2023-02-12T05:27:38.775Z,6.90
2023-02-12T05:30:06.641Z,6.90
2023-02-12T05:32:33.552Z,6.80
2023-02-12T05:35:00.947Z,6.80
2023-02-12T05:37:27.944Z,6.80
2023-02-12T05:39:54.832Z,6.80
2023-02-12T05:42:21.714Z,6.80
2023-02-12T05:44:48.575Z,6.80
2023-02-12T05:47:15.503Z,6.80
2023-02-12T05:49:42.875Z,6.80
2023-02-12T05:52:09.711Z,6.80
2023-02-12T05:54:36.598Z,6.90
2023-02-12T05:57:03.476Z,6.80
2023-02-12T05:59:30.424Z,6.80
2023-02-12T06:01:57.264Z,6.70
2023-02-12T06:04:26.776Z,6.80
2023-02-12T06:06:55.810Z,6.80
2023-02-12T06:09:23.311Z,6.80
2023-02-12T06:11:51.371Z,6.80
2023-02-12T06:14:21.885Z,6.80
2023-02-12T06:16:50.833Z,6.80
2023-02-12T06:19:19.590Z,6.80
2023-02-12T06:21:47.016Z,6.80
2023-02-12T06:24:15.339Z,6.80
2023-02-12T06:26:42.646Z,6.80
2023-02-12T06:29:09.910Z,6.80
2023-02-12T06:31:37.932Z,6.80
2023-02-12T06:34:07.693Z,6.80
2023-02-12T06:36:36.536Z,6.80
2023-02-12T06:39:04.147Z,6.80
2023-02-12T06:41:31.158Z,6.80
2023-02-12T06:43:58.326Z,6.80
2023-02-12T06:46:25.633Z,6.80
2023-02-12T06:48:56.788Z,6.70
2023-02-12T06:51:24.824Z,6.80
2023-02-12T06:53:53.925Z,6.80
2023-02-12T06:56:22.187Z,6.80
2023-02-12T06:58:56.974Z,6.80
2023-02-12T07:01:26.825Z,6.80
2023-02-12T07:03:59.699Z,6.80
2023-02-12T07:06:27.783Z,6.70
2023-02-12T07:08:55.654Z,6.80
2023-02-12T07:11:32.216Z,6.80
2023-02-12T07:13:59.320Z,6.80
2023-02-12T07:16:26.983Z,6.80
2023-02-12T07:18:54.168Z,6.80
2023-02-12T07:21:21.336Z,6.80
2023-02-12T07:23:51.442Z,6.80
2023-02-12T07:26:20.050Z,6.80
2023-02-12T07:28:46.910Z,6.80
2023-02-12T07:31:16.781Z,6.80
2023-02-12T07:33:44.374Z,6.80
2023-02-12T07:36:15.073Z,6.80
2023-02-12T07:38:42.482Z,6.80
2023-02-12T07:41:12.491Z,6.80
2023-02-12T07:43:44.013Z,6.80
2023-02-12T07:46:17.676Z,6.90
2023-02-12T07:48:45.768Z,6.90
2023-02-12T07:51:16.124Z,6.80
2023-02-12T07:53:43.323Z,6.90
2023-02-12T07:56:10.525Z,6.90
2023-02-12T07:58:38.363Z,6.90
2023-02-12T08:01:33.408Z,7.00
2023-02-12T08:04:02.720Z,7.00
2023-02-12T08:06:31.655Z,7.00
2023-02-12T08:09:00.830Z,7.00
2023-02-12T08:11:29.351Z,7.10
2023-02-12T08:13:58.110Z,7.20
2023-02-12T08:16:27.718Z,7.20
2023-02-12T08:18:55.819Z,7.20
2023-02-12T08:21:25.333Z,7.20
2023-02-12T08:23:53.676Z,7.20
2023-02-12T08:26:25.560Z,7.20
2023-02-12T08:28:55.361Z,7.20
2023-02-12T08:31:24.984Z,7.30
2023-02-12T08:33:54.056Z,7.30
2023-02-12T08:36:23.423Z,7.30
2023-02-12T08:38:50.780Z,7.30
2023-02-12T08:41:23.212Z,7.30
2023-02-12T08:43:52.624Z,7.30
2023-02-12T08:46:25.833Z,7.30
2023-02-12T08:49:01.567Z,7.30
2023-02-12T08:51:31.850Z,7.40
2023-02-12T08:54:02.083Z,7.50
2023-02-12T08:56:30.747Z,7.50
2023-02-12T08:58:59.123Z,7.40
2023-02-12T09:01:28.300Z,7.40
2023-02-12T09:03:55.608Z,7.50
2023-02-12T09:06:24.330Z,7.50
2023-02-12T09:08:52.300Z,7.60
2023-02-12T09:11:24.468Z,7.50
2023-02-12T09:13:51.358Z,7.60
2023-02-12T09:16:18.468Z,7.60
2023-02-12T09:18:45.514Z,7.60
2023-02-12T09:21:16.001Z,7.70
2023-02-12T09:23:44.346Z,7.70
2023-02-12T09:26:18.224Z,7.70
2023-02-12T09:28:45.107Z,7.60
2023-02-12T09:31:15.390Z,7.60
2023-02-12T09:33:42.426Z,7.70
2023-02-12T09:36:12.615Z,7.80
2023-02-12T09:38:40.195Z,7.90
2023-02-12T09:41:28.186Z,8.00
2023-02-12T09:44:04.577Z,8.10
2023-02-12T09:46:40.233Z,8.10
2023-02-12T09:49:18.668Z,8.10
2023-02-12T09:51:53.892Z,8.10
2023-02-12T09:54:27.587Z,8.00
2023-02-12T09:57:00.207Z,8.10
2023-02-12T09:59:38.530Z,8.10
2023-02-12T10:02:31.650Z,8.10
2023-02-12T10:05:01.971Z,8.10
2023-02-12T10:07:58.156Z,8.10
2023-02-12T10:10:45.294Z,8.20
2023-02-12T10:13:36.715Z,8.20
2023-02-12T10:16:10.304Z,8.20
2023-02-12T10:18:40.006Z,8.20
2023-02-12T10:21:09.904Z,8.10
2023-02-12T10:23:45.545Z,8.00
2023-02-12T10:26:38.138Z,8.10
2023-02-12T10:29:16.182Z,8.20
2023-02-12T10:31:49.183Z,8.20
2023-02-12T10:34:22.490Z,8.20
2023-02-12T10:36:54.119Z,8.30
2023-02-12T10:39:35.230Z,8.40
2023-02-12T10:42:12.977Z,8.40
2023-02-12T10:44:39.802Z,8.30
2023-02-12T10:47:08.635Z,8.20
2023-02-12T10:49:35.586Z,8.20
2023-02-12T10:52:31.283Z,8.10
2023-02-12T10:54:58.248Z,8.00
2023-02-12T10:57:27.762Z,8.10
2023-02-12T10:59:59.958Z,8.20
2023-02-12T11:02:30.008Z,8.40
2023-02-12T11:04:59.273Z,8.60
2023-02-12T11:07:27.868Z,8.60
2023-02-12T11:09:56.755Z,8.60
2023-02-12T11:12:48.378Z,8.60
2023-02-12T11:15:16.932Z,8.60
2023-02-12T11:17:54.936Z,8.60
2023-02-12T11:20:48.547Z,8.70
2023-02-12T11:23:37.943Z,8.80
2023-02-12T11:26:23.508Z,8.70
2023-02-12T11:28:57.955Z,8.70
2023-02-12T11:31:27.810Z,8.80
2023-02-12T11:34:07.045Z,8.60
2023-02-12T11:36:37.441Z,8.50
2023-02-12T11:39:07.796Z,8.60
2023-02-12T11:41:39.255Z,8.50
2023-02-12T11:44:13.752Z,8.40
2023-02-12T11:46:46.578Z,8.60
2023-02-12T11:49:29.203Z,8.70
2023-02-12T11:51:57.365Z,8.70
2023-02-12T11:54:27.327Z,8.60
2023-02-12T11:56:55.539Z,8.60
2023-02-12T11:59:42.726Z,8.50
2023-02-12T12:02:23.852Z,8.50
2023-02-12T12:04:54.427Z,8.50
2023-02-12T12:07:29.867Z,8.40
2023-02-12T12:10:03.856Z,8.70
2023-02-12T12:12:51.494Z,8.80
2023-02-12T12:15:46.760Z,8.80
2023-02-12T12:18:52.339Z,8.80
2023-02-12T12:21:45.739Z,8.90
2023-02-12T12:24:34.613Z,8.80
2023-02-12T12:27:45.033Z,8.80
2023-02-12T12:30:45.671Z,8.80
2023-02-12T12:33:36.125Z,9.00
2023-02-12T12:36:28.992Z,9.20
2023-02-12T12:39:29.935Z,9.10
2023-02-12T12:42:25.431Z,9.40
2023-02-12T12:45:30.189Z,9.40
2023-02-12T12:48:43.076Z,9.40
2023-02-12T12:51:14.201Z,9.40
2023-02-12T12:53:55.934Z,9.20
2023-02-12T12:56:44.594Z,9.00
2023-02-12T12:59:37.555Z,8.90
2023-02-12T13:02:28.410Z,8.90
2023-02-12T13:05:18.055Z,8.70
2023-02-12T13:08:36.721Z,8.70
2023-02-12T13:11:37.766Z,8.80
2023-02-12T13:14:16.716Z,8.70
2023-02-12T13:16:51.593Z,8.70
2023-02-12T13:19:39.571Z,8.70
2023-02-12T13:22:19.178Z,8.70
2023-02-12T13:24:55.954Z,8.70
2023-02-12T13:27:35.172Z,8.70
2023-02-12T13:30:19.346Z,8.70
2023-02-12T13:32:54.378Z,8.70
2023-02-12T13:35:24.883Z,8.70
2023-02-12T13:37:55.907Z,8.70
2023-02-12T13:40:28.707Z,8.70
2023-02-12T13:43:22.524Z,8.70
2023-02-12T13:46:12.262Z,8.70
2023-02-12T13:48:44.912Z,8.60
2023-02-12T13:51:21.549Z,8.60
2023-02-12T13:54:13.131Z,8.60
2023-02-12T13:56:51.938Z,8.60
2023-02-12T13:59:30.840Z,8.60
2023-02-12T14:02:24.919Z,8.50
2023-02-12T14:04:59.808Z,8.50
2023-02-12T14:07:45.638Z,8.50
2023-02-12T14:10:23.212Z,8.60
2023-02-12T14:12:51.511Z,8.70
2023-02-12T14:15:35.092Z,8.70
2023-02-12T14:18:23.664Z,8.70
2023-02-12T14:21:13.162Z,8.70
2023-02-12T14:23:42.302Z,8.70
2023-02-12T14:26:13.026Z,8.70
2023-02-12T14:29:06.463Z,8.60
2023-02-12T14:31:36.246Z,8.50
2023-02-12T14:34:06.286Z,8.40
2023-02-12T14:36:33.205Z,8.30
2023-02-12T14:39:04.451Z,8.30
2023-02-12T14:41:34.323Z,8.30
2023-02-12T14:44:30.581Z,8.30
2023-02-12T14:46:59.341Z,8.40
2023-02-12T14:49:30.523Z,8.40
2023-02-12T14:52:05.269Z,8.40
2023-02-12T14:54:45.134Z,8.50
2023-02-12T14:57:35.060Z,8.50
2023-02-12T15:00:10.652Z,8.50
2023-02-12T15:02:40.148Z,8.60
2023-02-12T15:05:21.753Z,8.60
2023-02-12T15:08:26.270Z,8.60
2023-02-12T15:11:09.276Z,8.70
2023-02-12T15:13:41.908Z,8.60
2023-02-12T15:16:27.864Z,8.60
2023-02-12T15:19:18.828Z,8.60
2023-02-12T15:21:48.878Z,8.70
2023-02-12T15:24:25.967Z,8.70
2023-02-12T15:26:56.609Z,8.70
2023-02-12T15:29:42.878Z,8.70
2023-02-12T15:32:21.611Z,8.60
2023-02-12T15:34:50.244Z,8.60
2023-02-12T15:37:29.450Z,8.70
2023-02-12T15:40:03.773Z,8.60
2023-02-12T15:42:39.196Z,8.60
2023-02-12T15:45:16.306Z,8.50
2023-02-12T15:47:46.038Z,8.50
2023-02-12T15:50:15.508Z,8.50
2023-02-12T15:52:45.476Z,8.50
2023-02-12T15:55:18.785Z,8.40
2023-02-12T15:57:54.354Z,8.30
2023-02-12T16:00:40.911Z,8.30
2023-02-12T16:03:24.315Z,8.20
2023-02-12T16:05:52.494Z,8.20
2023-02-12T16:08:21.864Z,8.20
2023-02-12T16:10:52.070Z,8.20
2023-02-12T16:13:27.335Z,8.20
2023-02-12T16:16:25.572Z,8.20
2023-02-12T16:19:19.670Z,8.20
2023-02-12T16:21:55.744Z,8.10
2023-02-12T16:24:29.546Z,8.10
2023-02-12T16:26:58.488Z,8.00
2023-02-12T16:29:25.820Z,8.00
2023-02-12T16:31:55.017Z,8.00
2023-02-12T16:34:36.904Z,8.00
2023-02-12T16:37:44.010Z,8.00
2023-02-12T16:40:21.833Z,8.00
2023-02-12T16:42:48.696Z,7.90
2023-02-12T16:45:43.127Z,7.90
2023-02-12T16:48:16.206Z,7.90
2023-02-12T16:50:50.014Z,7.90
2023-02-12T16:53:31.517Z,7.90
2023-02-12T16:55:59.563Z,7.80
2023-02-12T16:58:27.092Z,7.80
2023-02-12T17:00:55.518Z,7.80
2023-02-12T17:03:23.623Z,7.70
2023-02-12T17:05:51.959Z,7.70
2023-02-12T17:08:22.158Z,7.70
2023-02-12T17:10:49.053Z,7.60
2023-02-12T17:13:16.746Z,7.60
2023-02-12T17:15:55.562Z,7.60
2023-02-12T17:18:23.333Z,7.60
2023-02-12T17:21:24.432Z,7.50
2023-02-12T17:23:53.855Z,7.50
2023-02-12T17:26:22.131Z,7.50
2023-02-12T17:28:49.390Z,7.40
2023-02-12T17:31:17.449Z,7.40
2023-02-12T17:33:44.528Z,7.40
2023-02-12T17:36:12.534Z,7.40
2023-02-12T17:38:39.403Z,7.40
2023-02-12T17:41:12.577Z,7.40
2023-02-12T17:43:39.526Z,7.40
2023-02-12T17:46:11.492Z,7.40
2023-02-12T17:48:40.412Z,7.40
2023-02-12T17:51:09.117Z,7.40
2023-02-12T17:53:35.983Z,7.40
2023-02-12T17:56:03.002Z,7.40
2023-02-12T17:58:30.104Z,7.40
2023-02-12T18:00:57.577Z,7.40
2023-02-12T18:03:24.691Z,7.30
2023-02-12T18:05:51.660Z,7.30
2023-02-12T18:08:18.540Z,7.30
2023-02-12T18:10:49.136Z,7.30
2023-02-12T18:13:16.097Z,7.40
2023-02-12T18:15:43.241Z,7.40
2023-02-12T18:18:11.158Z,7.40
2023-02-12T18:20:40.970Z,7.40
2023-02-12T18:23:08.539Z,7.40
2023-02-12T18:25:39.930Z,7.40
2023-02-12T18:28:07.155Z,7.40
2023-02-12T18:30:34.629Z,7.40
2023-02-12T18:33:01.850Z,7.40
2023-02-12T18:35:29.973Z,7.40
2023-02-12T18:37:56.804Z,7.40
2023-02-12T18:40:23.720Z,7.30
2023-02-12T18:42:51.172Z,7.30
2023-02-12T18:45:19.297Z,7.20
2023-02-12T18:47:46.267Z,7.20
2023-02-12T18:50:13.171Z,7.20
2023-02-12T18:52:40.029Z,7.20
2023-02-12T18:55:07.728Z,7.20
2023-02-12T18:57:34.574Z,7.20
2023-02-12T19:00:01.599Z,7.20
2023-02-12T19:02:28.657Z,7.20
2023-02-12T19:04:55.648Z,7.20
2023-02-12T19:07:22.527Z,7.20
2023-02-12T19:09:49.738Z,7.10
2023-02-12T19:12:16.766Z,7.10
2023-02-12T19:14:43.648Z,7.10
2023-02-12T19:17:10.483Z,7.10
2023-02-12T19:19:37.367Z,7.10
2023-02-12T19:22:05.535Z,7.20
2023-02-12T19:24:45.884Z,7.20
2023-02-12T19:27:13.356Z,7.20
2023-02-12T19:29:40.278Z,7.20
2023-02-12T19:32:07.173Z,7.10
2023-02-12T19:34:34.058Z,7.10
2023-02-12T19:37:00.905Z,7.10
2023-02-12T19:39:27.841Z,7.00
2023-02-12T19:41:56.282Z,7.00
2023-02-12T19:44:25.473Z,7.10
2023-02-12T19:46:53.115Z,7.20
2023-02-12T19:49:25.684Z,7.20
2023-02-12T19:51:53.138Z,7.20
2023-02-12T19:54:21.988Z,7.20
2023-02-12T19:56:49.280Z,7.10
2023-02-12T19:59:18.605Z,7.10
2023-02-12T20:01:46.958Z,7.00
2023-02-12T20:04:16.151Z,7.10
2023-02-12T20:06:45.892Z,7.10
2023-02-12T20:09:13.702Z,7.10
2023-02-12T20:11:40.942Z,7.10
2023-02-12T20:14:10.461Z,7.10
2023-02-12T20:16:41.517Z,7.10
2023-02-12T20:19:14.177Z,7.20
2023-02-12T20:21:41.778Z,7.20
2023-02-12T20:24:08.714Z,7.20
2023-02-12T20:26:36.274Z,7.20
2023-02-12T20:29:05.265Z,7.00
2023-02-12T20:31:36.212Z,7.00
2023-02-12T20:34:08.095Z,7.00
2023-02-12T20:36:37.304Z,7.10
2023-02-12T20:39:06.446Z,7.10
2023-02-12T20:41:36.989Z,7.10
2023-02-12T20:44:05.813Z,7.10
2023-02-12T20:46:36.118Z,7.10
2023-02-12T20:49:03.509Z,7.10
2023-02-12T20:51:31.238Z,7.00
2023-02-12T20:54:00.830Z,7.10
2023-02-12T20:56:31.174Z,7.10
2023-02-12T20:58:59.275Z,7.00
2023-02-12T21:01:33.271Z,7.00
2023-02-12T21:04:03.934Z,7.00
2023-02-12T21:06:31.112Z,7.00
2023-02-12T21:08:58.264Z,7.00
2023-02-12T21:11:28.893Z,7.00
2023-02-12T21:13:59.199Z,6.90
2023-02-12T21:16:31.194Z,7.00
2023-02-12T21:18:58.145Z,6.90
2023-02-12T21:21:30.510Z,7.00
2023-02-12T21:23:59.298Z,7.00
2023-02-12T21:26:28.401Z,7.00
2023-02-12T21:28:57.625Z,6.90
2023-02-12T21:31:28.422Z,6.90
2023-02-12T21:33:57.496Z,6.90
2023-02-12T21:36:27.628Z,6.90
2023-02-12T21:38:55.408Z,7.00
2023-02-12T21:41:25.542Z,7.00
2023-02-12T21:43:57.330Z,7.00
2023-02-12T21:46:24.945Z,6.90
2023-02-12T21:48:52.310Z,6.90
2023-02-12T21:51:27.616Z,6.90
2023-02-12T21:53:56.808Z,6.90
2023-02-12T21:56:25.104Z,6.90
2023-02-12T21:58:52.159Z,6.90
2023-02-12T22:01:22.711Z,6.90
2023-02-12T22:03:50.936Z,6.90
2023-02-12T22:06:19.165Z,6.90
2023-02-12T22:08:46.794Z,6.80
2023-02-12T22:11:14.124Z,6.90
2023-02-12T22:13:41.414Z,6.90
2023-02-12T22:16:14.655Z,6.90
2023-02-12T22:18:42.961Z,6.90
2023-02-12T22:21:13.508Z,6.90
2023-02-12T22:23:40.812Z,6.90
2023-02-12T22:26:09.957Z,6.90
2023-02-12T22:28:51.587Z,6.90
2023-02-12T22:31:21.967Z,6.80
2023-02-12T22:33:50.574Z,6.80
2023-02-12T22:36:22.017Z,6.80
2023-02-12T22:38:49.156Z,6.90
2023-02-12T22:41:16.245Z,6.90
2023-02-12T22:43:43.410Z,6.90
2023-02-12T22:46:12.000Z,7.00
2023-02-12T22:48:39.735Z,7.00
2023-02-12T22:51:18.697Z,7.00
2023-02-12T22:53:45.667Z,7.10
2023-02-12T22:56:13.052Z,7.10
2023-02-12T22:58:40.032Z,7.10
2023-02-12T23:01:15.634Z,7.10
2023-02-12T23:03:43.469Z,7.10
2023-02-12T23:06:16.019Z,7.20
2023-02-12T23:08:43.605Z,7.20
2023-02-12T23:11:12.038Z,7.20
2023-02-12T23:13:39.093Z,7.20
2023-02-12T23:16:06.014Z,7.30
2023-02-12T23:18:33.341Z,7.30
2023-02-12T23:21:01.029Z,7.30
2023-02-12T23:23:28.384Z,7.30
2023-02-12T23:25:55.223Z,7.30
2023-02-12T23:28:23.143Z,7.20
2023-02-12T23:30:51.375Z,7.30
2023-02-12T23:33:19.194Z,7.30
2023-02-12T23:35:47.050Z,7.40
2023-02-12T23:38:14.642Z,7.40
2023-02-12T23:40:42.001Z,7.30
2023-02-12T23:43:09.329Z,7.40
2023-02-12T23:45:36.388Z,7.30
2023-02-12T23:48:03.339Z,7.30
2023-02-12T23:50:30.191Z,7.40
2023-02-12T23:52:58.189Z,7.40
2023-02-12T23:55:25.055Z,7.40
2023-02-12T23:57:51.871Z,7.40
